Time;durP1;ratioP1;P1;durP2;ratioP2;P2;SDS_P1;SDS_P2;PMS_P1;PMS_P2;Temp;Humidity;BMP_temperature;BMP_pressure;BME280_temperature;BME280_humidity;BME280_pressure;Samples;Min_cycle;Max_cycle;Signal;HPM_P1;HPM_P2
2022/05/14 00:02:19;;;;;;;6.67;4.40;;;;;;;11.58;66.07;100530.65;3385873;81;21154;-79
2022/05/14 00:07:10;;;;;;;5.90;4.12;;;;;;;11.53;66.24;100531.89;3397095;81;21518;-78
2022/05/14 00:17:11;;;;;;;4.40;3.90;;;;;;;11.39;66.32;100546.09;3414208;81;21488;-78
2022/05/14 00:22:02;;;;;;;6.70;4.20;;;;;;;11.33;66.58;100546.00;3415037;81;21351;-78
2022/05/14 00:26:53;;;;;;;4.53;3.67;;;;;;;11.33;66.64;100549.05;3454512;81;21202;-78
2022/05/14 00:31:44;;;;;;;5.77;3.93;;;;;;;11.30;66.75;100557.67;3401349;81;20998;-78
2022/05/14 00:36:36;;;;;;;6.10;3.80;;;;;;;11.24;66.39;100558.92;3393314;81;21826;-79
2022/05/14 00:41:27;;;;;;;5.47;4.03;;;;;;;11.11;66.51;100555.73;3399453;82;20977;-78
2022/05/14 00:46:26;;;;;;;4.75;4.17;;;;;;;11.08;66.72;100559.59;3463061;81;20958;-78
2022/05/14 00:51:26;;;;;;;7.12;4.15;;;;;;;11.02;66.84;100549.55;3417761;81;21539;-78
2022/05/14 00:56:26;;;;;;;7.55;4.60;;;;;;;10.97;66.72;100546.02;3474232;80;21009;-78
2022/05/14 01:01:18;;;;;;;6.42;4.47;;;;;;;10.94;66.83;100555.07;3506100;80;20962;-79
2022/05/14 01:06:14;;;;;;;5.12;4.65;;;;;;;10.85;66.83;100549.75;3523481;80;21001;-78
2022/05/14 01:11:06;;;;;;;5.33;4.03;;;;;;;10.78;67.08;100551.83;3503318;80;21456;-78
2022/05/14 01:16:00;;;;;;;7.15;4.83;;;;;;;10.72;67.12;100558.26;3477969;80;21437;-78
2022/05/14 01:21:01;;;;;;;8.65;4.35;;;;;;;10.67;67.32;100555.58;3420385;81;20963;-79
2022/05/14 01:26:28;;;;;;;10.63;5.90;;;;;;;10.62;67.39;100550.34;3460821;80;20951;-79
2022/05/14 01:31:20;;;;;;;6.25;5.10;;;;;;;10.57;67.54;100553.30;3543719;80;21021;-78
2022/05/14 01:36:12;;;;;;;4.80;4.30;;;;;;;10.54;67.79;100554.54;3502932;80;21001;-79
2022/05/14 01:41:03;;;;;;;6.92;5.10;;;;;;;10.52;67.94;100549.75;3520179;80;21063;-78
2022/05/14 01:45:54;;;;;;;5.42;4.78;;;;;;;10.45;68.08;100542.28;3433919;80;22118;-78
2022/05/14 01:50:46;;;;;;;5.87;5.37;;;;;;;10.36;67.81;100551.67;3468692;80;21040;-78
2022/05/14 01:55:37;;;;;;;5.53;5.03;;;;;;;10.29;68.23;100548.94;3502787;80;20942;-78
2022/05/14 02:00:28;;;;;;;5.58;4.75;;;;;;;10.23;68.14;100550.16;3521866;80;20951;-79
2022/05/14 02:05:20;;;;;;;7.03;5.33;;;;;;;10.16;68.29;100553.50;3494941;80;21111;-79
2022/05/14 02:10:13;;;;;;;6.55;5.33;;;;;;;10.09;68.25;100552.52;3387705;80;21440;-79
2022/05/14 02:15:05;;;;;;;11.05;5.53;;;;;;;10.01;68.50;100551.94;3491131;81;20909;-79
2022/05/14 02:19:57;;;;;;;8.10;6.45;;;;;;;9.90;68.44;100556.95;3459716;81;20942;-79
2022/05/14 02:24:49;;;;;;;6.95;5.90;;;;;;;9.82;68.72;100578.00;3485560;81;21369;-78
2022/05/14 02:29:56;;;;;;;6.22;5.62;;;;;;;9.78;68.87;100576.21;3495320;80;21384;-79
2022/05/14 02:34:48;;;;;;;6.40;5.80;;;;;;;9.73;68.97;100566.63;3449622;80;22199;-78
2022/05/14 02:39:39;;;;;;;6.33;5.72;;;;;;;9.69;69.02;100559.64;3446906;80;20935;-79
2022/05/14 02:44:31;;;;;;;6.25;5.65;;;;;;;9.67;69.41;100555.25;3413449;81;21038;-78
2022/05/14 02:49:22;;;;;;;7.70;6.95;;;;;;;9.63;69.31;100560.81;3442404;81;21105;-78
2022/05/14 02:54:13;;;;;;;7.80;6.45;;;;;;;9.61;69.53;100572.03;3464533;80;21491;-78
2022/05/14 02:59:07;;;;;;;7.05;6.35;;;;;;;9.69;70.07;100571.72;3520489;80;20927;-79
2022/05/14 03:04:00;;;;;;;7.53;6.10;;;;;;;9.80;70.20;100554.64;3480222;80;21354;-78
2022/05/14 03:08:51;;;;;;;6.55;5.95;;;;;;;9.87;70.24;100559.09;3522986;80;21445;-78
2022/05/14 03:13:44;;;;;;;6.23;5.27;;;;;;;9.98;70.34;100567.06;3402782;81;21756;-79
2022/05/14 03:18:36;;;;;;;5.78;5.00;;;;;;;10.08;70.37;100564.18;3357522;82;21875;-79
2022/05/14 03:23:27;;;;;;;5.65;4.97;;;;;;;10.21;70.30;100562.25;3395383;82;20963;-78
2022/05/14 03:28:18;;;;;;;6.90;5.53;;;;;;;10.27;69.89;100566.23;3427133;82;20987;-78
2022/05/14 03:33:10;;;;;;;7.25;4.85;;;;;;;10.35;70.05;100569.41;3348470;81;20976;-78
2022/05/14 03:38:02;;;;;;;6.53;5.75;;;;;;;10.46;69.92;100565.23;3395816;83;21484;-78
2022/05/14 03:42:53;;;;;;;5.35;4.55;;;;;;;10.56;69.94;100563.66;3403555;83;21209;-79
2022/05/14 03:47:44;;;;;;;6.15;5.10;;;;;;;10.68;69.50;100562.11;3345036;83;20936;-78
2022/05/14 03:52:35;;;;;;;7.37;5.45;;;;;;;10.76;69.36;100573.05;3402386;83;22090;-79
2022/05/14 03:57:26;;;;;;;5.40;4.78;;;;;;;10.87;69.44;100575.35;3373254;83;21011;-79
2022/05/14 04:02:20;;;;;;;6.67;4.45;;;;;;;10.98;69.29;100587.20;3384582;83;20952;-78
2022/05/14 04:07:11;;;;;;;10.68;5.25;;;;;;;11.06;69.24;100577.34;3391548;83;21873;-79
2022/05/14 04:12:03;;;;;;;8.20;4.92;;;;;;;11.16;68.91;100579.66;3350853;83;20991;-79
2022/05/14 04:16:54;;;;;;;4.42;4.03;;;;;;;11.22;68.75;100573.20;3468309;80;20990;-78
2022/05/14 04:21:46;;;;;;;6.58;4.55;;;;;;;11.33;68.68;100575.07;3451708;80;20998;-78
2022/05/14 04:26:38;;;;;;;3.85;3.50;;;;;;;11.42;68.38;100578.64;3517079;80;20954;-79
2022/05/14 04:31:30;;;;;;;6.35;4.22;;;;;;;11.53;68.29;100571.38;3520068;80;21124;-79
2022/05/14 04:36:22;;;;;;;6.08;4.03;;;;;;;11.57;67.79;100566.23;3405771;81;20971;-79
2022/05/14 04:41:14;;;;;;;7.25;4.97;;;;;;;11.67;67.87;100572.40;3458787;80;22144;-79
2022/05/14 04:46:09;;;;;;;5.17;3.77;;;;;;;11.76;68.06;100564.67;3420371;82;20998;-79
2022/05/14 04:51:01;;;;;;;9.40;3.70;;;;;;;11.85;67.94;100568.23;3372467;82;21394;-78
2022/05/14 04:55:53;;;;;;;7.20;4.05;;;;;;;11.90;67.92;100563.95;3426662;81;21165;-79
2022/05/14 05:00:44;;;;;;;6.35;4.00;;;;;;;11.96;67.56;100564.02;3398720;82;21314;-79
2022/05/14 05:05:35;;;;;;;6.00;4.20;;;;;;;12.04;67.22;100570.19;3454037;80;20970;-78
2022/05/14 05:10:27;;;;;;;4.83;3.85;;;;;;;12.15;67.00;100548.98;3497801;80;20958;-79
2022/05/14 05:15:19;;;;;;;4.20;3.80;;;;;;;12.33;66.67;100553.90;3509582;80;20988;-79
2022/05/14 05:20:11;;;;;;;5.25;3.58;;;;;;;12.40;66.77;100554.38;3474403;80;20922;-79
2022/05/14 05:25:02;;;;;;;3.85;3.45;;;;;;;12.45;66.49;100561.81;3486510;80;20935;-78
2022/05/14 05:29:53;;;;;;;5.95;3.60;;;;;;;12.44;66.27;100562.66;3446244;80;20950;-79
2022/05/14 05:34:44;;;;;;;4.53;4.00;;;;;;;12.38;66.59;100565.23;3488738;81;21191;-79
2022/05/14 05:39:35;;;;;;;3.90;3.07;;;;;;;12.30;66.42;100566.91;3491953;80;21334;-78
2022/05/14 05:44:27;;;;;;;5.17;3.98;;;;;;;12.27;66.29;100561.66;3432817;80;21483;-79
2022/05/14 05:49:19;;;;;;;6.53;4.20;;;;;;;12.26;66.29;100542.98;3393761;81;20926;-79
2022/05/14 05:59:20;;;;;;;3.62;3.08;;;;;;;12.54;66.29;100529.70;3502320;80;20950;-78
2022/05/14 06:04:11;;;;;;;5.08;3.45;;;;;;;12.87;65.78;100528.98;3432371;81;20924;-79
2022/05/14 06:09:03;;;;;;;4.47;3.45;;;;;;;13.20;65.83;100531.31;3440703;81;21967;-79
2022/05/14 06:13:55;;;;;;;4.37;3.75;;;;;;;13.47;64.97;100530.98;3419129;81;20986;-79
2022/05/14 06:18:46;;;;;;;4.42;3.42;;;;;;;13.58;64.79;100531.87;3399426;82;21097;-79
2022/05/14 06:23:38;;;;;;;4.63;3.43;;;;;;;13.95;64.13;100521.45;3428421;81;20946;-79
2022/05/14 06:28:29;;;;;;;4.50;3.00;;;;;;;15.18;62.01;100518.53;3394461;83;21633;-79
2022/05/14 06:33:20;;;;;;;6.30;3.65;;;;;;;16.26;59.97;100517.80;3405484;83;22063;-79
2022/05/14 06:38:13;;;;;;;4.47;3.22;;;;;;;15.77;60.24;100514.27;3334234;83;20955;-79
2022/05/14 06:43:05;;;;;;;5.53;3.62;;;;;;;15.60;60.69;100525.72;3350003;82;20940;-78
2022/05/14 06:47:57;;;;;;;4.25;2.83;;;;;;;15.16;60.45;100522.91;3385918;83;21584;-78
2022/05/14 06:52:53;;;;;;;5.47;3.50;;;;;;;14.93;60.52;100523.02;3381522;83;20976;-78
2022/05/14 06:57:44;;;;;;;6.05;3.65;;;;;;;14.65;61.21;100523.56;3374426;83;21094;-78
2022/05/14 07:02:39;;;;;;;5.72;3.27;;;;;;;14.44;61.37;100530.55;3309244;83;20982;-78
2022/05/14 07:07:30;;;;;;;4.15;2.80;;;;;;;14.32;61.36;100537.09;3389805;83;21506;-78
2022/05/14 07:12:22;;;;;;;4.10;3.22;;;;;;;14.22;61.66;100528.85;3358358;83;20950;-78
2022/05/14 07:17:13;;;;;;;5.28;3.05;;;;;;;14.23;61.37;100531.89;3405925;82;21233;-78
2022/05/14 07:22:05;;;;;;;6.55;3.22;;;;;;;14.26;61.39;100528.83;3452921;82;21125;-78
2022/05/14 07:27:01;;;;;;;4.12;3.02;;;;;;;14.20;61.62;100521.42;3428287;81;20966;-78
2022/05/14 07:31:53;;;;;;;5.95;3.47;;;;;;;14.15;61.52;100524.47;3504091;80;20895;-78
2022/05/14 07:36:53;;;;;;;4.42;2.80;;;;;;;14.41;61.27;100518.77;3465142;80;21007;-78
2022/05/14 07:41:49;;;;;;;3.17;2.08;;;;;;;14.72;61.00;100510.91;3336053;83;21406;-78
2022/05/14 07:46:40;;;;;;;5.08;3.17;;;;;;;15.12;60.27;100511.17;3332398;83;21042;-78
2022/05/14 07:51:31;;;;;;;5.40;2.40;;;;;;;16.05;59.21;100502.27;3353579;83;21692;-78
2022/05/14 07:56:23;;;;;;;6.20;2.40;;;;;;;16.27;58.01;100500.30;3320658;83;21678;-78
2022/05/14 08:01:15;;;;;;;6.75;2.80;;;;;;;16.57;57.96;100497.34;3301098;83;21007;-78
2022/05/14 08:06:09;;;;;;;5.40;2.83;;;;;;;17.21;57.26;100492.67;3314399;83;20990;-78
2022/05/14 08:10:59;;;;;;;6.65;2.90;;;;;;;17.95;55.98;100486.29;3322659;83;21115;-78
2022/05/14 08:15:51;;;;;;;6.67;3.63;;;;;;;18.53;54.65;100486.97;3436915;80;20908;-79
2022/05/14 08:20:44;;;;;;;4.42;3.27;;;;;;;19.43;52.60;100466.62;3428476;82;21672;-79
2022/05/14 08:25:35;;;;;;;4.62;2.58;;;;;;;19.70;52.64;100468.17;3484301;80;20907;-79
2022/05/14 08:30:30;;;;;;;4.60;2.83;;;;;;;19.94;51.53;100467.17;3484616;81;20918;-79
2022/05/14 08:35:22;;;;;;;4.22;2.85;;;;;;;19.30;50.92;100474.41;3436404;80;21072;-79
2022/05/14 08:40:21;;;;;;;5.33;3.42;;;;;;;18.28;51.73;100466.41;3429988;80;21006;-79
2022/05/14 08:45:16;;;;;;;7.60;3.42;;;;;;;17.57;52.71;100453.13;3352839;83;20936;-79
2022/05/14 08:50:09;;;;;;;5.03;3.35;;;;;;;17.06;53.21;100459.16;3383746;81;20983;-78
2022/05/14 08:55:09;;;;;;;6.05;2.92;;;;;;;16.89;53.82;100466.38;3446744;80;20990;-79
2022/05/14 09:00:05;;;;;;;5.87;2.80;;;;;;;16.82;54.28;100468.63;3464094;80;22072;-78
2022/05/14 09:05:21;;;;;;;4.72;3.25;;;;;;;16.57;53.88;100468.92;3464291;80;20929;-78
2022/05/14 09:10:32;;;;;;;6.15;3.20;;;;;;;16.08;54.06;100466.39;3487282;80;22158;-78
2022/05/14 09:15:31;;;;;;;4.35;2.98;;;;;;;15.87;54.49;100471.37;3260148;86;21041;-79
2022/05/14 09:20:25;;;;;;;9.95;3.52;;;;;;;15.91;54.55;100478.33;3319019;84;21444;-79
2022/05/14 09:25:33;;;;;;;5.40;3.90;;;;;;;16.31;54.30;100474.03;3343580;84;21081;-78
2022/05/14 09:30:36;;;;;;;7.70;4.28;;;;;;;16.75;53.41;100488.37;3303491;84;21010;-79
2022/05/14 09:35:32;;;;;;;6.92;3.65;;;;;;;16.96;52.97;100485.11;3287882;84;20975;-79
2022/05/14 09:40:28;;;;;;;6.35;2.92;;;;;;;17.55;52.40;100476.41;3327207;84;21157;-79
2022/05/14 09:45:36;;;;;;;6.75;2.95;;;;;;;19.09;50.06;100488.07;3310789;85;20978;-79
2022/05/14 09:50:34;;;;;;;4.45;2.80;;;;;;;18.65;50.09;100486.31;3299126;81;21012;-79
2022/05/14 09:55:36;;;;;;;3.08;2.30;;;;;;;18.41;49.48;100486.78;3479823;80;21020;-79
2022/05/14 10:00:57;;;;;;;3.70;2.98;;;;;;;18.25;50.04;100487.05;3535133;80;20942;-78
2022/05/14 10:06:15;;;;;;;6.92;2.70;;;;;;;18.96;48.05;100472.98;3491036;80;20949;-79
2022/05/14 10:11:35;;;;;;;4.95;2.42;;;;;;;20.37;46.01;100475.27;3494865;81;20981;-79
2022/05/14 10:16:34;;;;;;;5.95;2.42;;;;;;;21.26;43.51;100470.52;3497041;80;21232;-80
2022/05/14 10:21:50;;;;;;;4.58;2.60;;;;;;;24.03;40.48;100452.91;3471101;81;21002;-77
2022/05/14 10:27:11;;;;;;;9.10;4.03;;;;;;;24.42;38.25;100450.28;3467084;80;21594;-77
2022/05/14 10:32:07;;;;;;;5.97;3.05;;;;;;;26.68;36.80;100445.45;3440604;81;21562;-78
2022/05/14 10:37:04;;;;;;;6.08;2.80;;;;;;;27.80;34.06;100440.93;3444005;82;20903;-78
2022/05/14 10:42:12;;;;;;;5.08;2.62;;;;;;;29.00;33.76;100444.27;3354466;83;21543;-78
2022/05/14 10:47:09;;;;;;;6.70;3.20;;;;;;;24.95;34.22;100450.56;3382657;82;21009;-77
2022/05/14 10:52:00;;;;;;;4.83;3.12;;;;;;;22.29;36.73;100442.00;3400856;82;21447;-76
2022/05/14 10:57:20;;;;;;;5.65;2.42;;;;;;;21.02;38.62;100447.89;3426836;83;20997;-75
2022/05/14 11:02:32;;;;;;;4.47;2.20;;;;;;;19.99;39.64;100442.86;3430958;82;20990;-76
2022/05/14 11:07:32;;;;;;;5.70;2.50;;;;;;;19.09;41.46;100440.64;3429341;81;21182;-76
2022/05/14 11:12:29;;;;;;;5.62;3.05;;;;;;;18.45;42.03;100441.06;3445536;80;20987;-76
2022/05/14 11:17:31;;;;;;;9.25;3.98;;;;;;;18.43;42.57;100441.55;3400779;81;21548;-76
2022/05/14 11:22:40;;;;;;;6.62;2.30;;;;;;;18.43;42.66;100440.23;3496163;80;21001;-77
2022/05/14 11:27:38;;;;;;;4.05;2.00;;;;;;;18.35;42.16;100446.97;3492166;80;20934;-76
2022/05/14 11:32:46;;;;;;;7.58;1.70;;;;;;;18.28;42.32;100447.53;3429728;81;20986;-76
2022/05/14 11:37:43;;;;;;;8.30;3.33;;;;;;;18.95;41.83;100443.12;3415009;82;20970;-77
2022/05/14 11:42:34;;;;;;;7.75;2.75;;;;;;;19.52;40.18;100430.41;3446344;80;21475;-77
2022/05/14 11:47:43;;;;;;;5.73;2.37;;;;;;;19.36;40.63;100445.26;3465150;81;20969;-76
2022/05/14 11:52:54;;;;;;;5.90;3.10;;;;;;;19.09;40.43;100444.59;3466261;80;21708;-76
2022/05/14 11:58:06;;;;;;;4.55;2.40;;;;;;;18.80;40.66;100455.29;3428937;82;21844;-77
2022/05/14 12:03:11;;;;;;;4.70;2.52;;;;;;;18.45;41.19;100452.91;3406746;82;21584;-76
2022/05/14 12:08:37;;;;;;;3.42;2.27;;;;;;;18.17;41.99;100452.14;3434538;82;21014;-77
2022/05/14 12:13:46;;;;;;;6.42;2.27;;;;;;;18.23;41.97;100454.64;3423342;82;21050;-77
2022/05/14 12:18:43;;;;;;;5.15;2.30;;;;;;;18.48;41.98;100460.76;3379338;83;21679;-77
2022/05/14 12:23:42;;;;;;;6.22;2.58;;;;;;;18.66;42.23;100463.01;3295097;83;21078;-78
2022/05/14 12:28:37;;;;;;;5.20;2.25;;;;;;;18.63;41.99;100470.96;3382513;83;21054;-79
2022/05/14 12:33:28;;;;;;;4.50;2.40;;;;;;;18.59;42.63;100473.25;3380199;83;21043;-79
2022/05/14 12:38:25;;;;;;;4.55;2.50;;;;;;;18.58;41.93;100478.11;3353777;83;20930;-79
2022/05/14 12:43:16;;;;;;;6.10;2.50;;;;;;;18.65;42.55;100477.09;3396884;83;20936;-79
2022/05/14 12:48:11;;;;;;;7.87;2.20;;;;;;;18.82;41.99;100474.59;3338109;83;21803;-78
2022/05/14 12:53:11;;;;;;;4.72;2.05;;;;;;;19.01;41.28;100477.67;3340822;83;20948;-79
2022/05/14 12:58:02;;;;;;;5.40;3.37;;;;;;;19.06;41.22;100477.13;3380207;83;21006;-79
2022/05/14 13:03:25;;;;;;;5.50;2.15;;;;;;;19.03;41.47;100478.54;3420960;81;20947;-79
2022/05/14 13:08:23;;;;;;;7.50;2.47;;;;;;;19.05;41.24;100472.32;3329968;83;21022;-79
2022/05/14 13:13:16;;;;;;;5.22;2.72;;;;;;;18.97;41.40;100488.73;3338085;83;20991;-79
2022/05/14 13:18:16;;;;;;;4.37;2.20;;;;;;;18.83;41.78;100483.78;3349995;83;21331;-78
2022/05/14 13:23:19;;;;;;;5.17;2.35;;;;;;;18.67;41.29;100487.14;3394372;82;20955;-78
2022/05/14 13:28:27;;;;;;;30.45;8.05;;;;;;;18.57;41.49;100485.58;3348885;83;21024;-79
2022/05/14 13:33:29;;;;;;;4.65;2.22;;;;;;;18.53;41.64;100493.55;3238677;85;21048;-78
2022/05/14 13:38:31;;;;;;;5.70;2.30;;;;;;;18.47;41.43;100484.02;3329905;84;21041;-79
2022/05/14 13:43:36;;;;;;;5.28;2.42;;;;;;;18.60;41.37;100487.27;3292871;84;21006;-79
2022/05/14 13:48:40;;;;;;;6.30;2.35;;;;;;;18.90;41.37;100484.49;3322761;84;21551;-79
2022/05/14 13:53:36;;;;;;;6.67;3.60;;;;;;;18.92;40.97;100484.01;3271292;85;20998;-78
2022/05/14 13:58:31;;;;;;;3.83;2.40;;;;;;;19.05;41.05;100482.86;3224919;85;21022;-78
2022/05/14 14:03:27;;;;;;;5.62;2.47;;;;;;;19.40;40.63;100477.23;3271372;85;22377;-79
2022/05/14 14:08:29;;;;;;;7.85;2.90;;;;;;;19.88;40.71;100473.94;3288377;83;21042;-79
2022/05/14 14:13:21;;;;;;;6.08;2.27;;;;;;;20.03;40.14;100473.55;3358942;83;20979;-79
2022/05/14 14:18:12;;;;;;;5.40;2.33;;;;;;;19.98;39.94;100470.16;3367633;83;21020;-79
2022/05/14 14:23:09;;;;;;;9.75;2.83;;;;;;;19.71;39.78;100464.65;3363577;82;21555;-79
2022/05/14 14:28:00;;;;;;;;;;;;;;;19.43;40.20;100470.58;3420797;82;21286;-78
2022/05/14 14:32:52;;;;;;;6.53;2.55;;;;;;;18.97;39.93;100476.88;3404024;82;20493;-77
2022/05/14 14:37:44;;;;;;;5.87;2.22;;;;;;;18.83;40.63;100473.67;3430520;82;21020;-77
2022/05/14 14:42:36;;;;;;;5.58;2.27;;;;;;;18.97;40.53;100468.11;3382184;82;20988;-77
2022/05/14 14:47:29;;;;;;;8.08;2.47;;;;;;;18.81;40.67;100480.70;3387698;81;20977;-77
2022/05/14 14:52:20;;;;;;;9.63;2.22;;;;;;;18.75;41.21;100472.95;3436106;81;21273;-77
2022/05/14 14:57:11;;;;;;;6.00;2.33;;;;;;;18.48;41.14;100477.41;3458454;82;20984;-77
2022/05/14 15:02:08;;;;;;;6.03;2.20;;;;;;;18.20;41.40;100478.38;3404592;83;21279;-77
2022/05/14 15:07:01;;;;;;;6.55;2.75;;;;;;;18.12;41.51;100469.77;3441301;82;21093;-77
2022/05/14 15:11:54;;;;;;;7.80;2.72;;;;;;;18.05;41.78;100476.03;3410629;83;48474;-78
2022/05/14 15:16:45;;;;;;;5.72;2.98;;;;;;;18.12;41.62;100478.09;3409257;81;21574;-77
2022/05/14 15:21:36;;;;;;;5.13;2.23;;;;;;;18.10;41.79;100475.52;3298274;83;21005;-77
2022/05/14 15:26:28;;;;;;;4.87;2.45;;;;;;;18.12;42.60;100472.40;3317513;83;21920;-77
2022/05/14 15:31:40;;;;;;;6.15;2.75;;;;;;;18.12;41.74;100478.98;3378222;83;20995;-77
2022/05/14 15:36:31;;;;;;;4.37;2.15;;;;;;;18.08;41.90;100479.91;3381594;83;20953;-77
2022/05/14 15:41:24;;;;;;;7.50;2.90;;;;;;;18.06;42.28;100485.22;3319660;83;21122;-78
2022/05/14 15:46:21;;;;;;;4.22;2.47;;;;;;;18.33;42.52;100483.41;3381110;83;20982;-78
2022/05/14 15:51:16;;;;;;;6.35;2.60;;;;;;;18.55;42.22;100479.94;3363926;83;20962;-77
2022/05/14 15:56:08;;;;;;;4.87;3.45;;;;;;;18.46;42.41;100482.30;3374599;84;21082;-77
2022/05/14 16:00:59;;;;;;;7.55;2.42;;;;;;;18.15;41.97;100484.62;3352339;84;21014;-77
2022/05/14 16:05:50;;;;;;;7.27;2.67;;;;;;;17.84;42.28;100478.09;3345350;82;20916;-77
2022/05/14 16:15:52;;;;;;;5.80;3.50;;;;;;;17.61;42.89;100481.09;3352664;81;21541;-77
2022/05/14 16:20:44;;;;;;;4.12;2.10;;;;;;;17.57;42.62;100483.36;3419109;81;20990;-77
2022/05/14 16:25:35;;;;;;;7.65;3.15;;;;;;;17.56;42.75;100480.75;3419861;81;21504;-77
2022/05/14 16:30:26;;;;;;;5.30;2.25;;;;;;;17.53;42.98;100473.34;3469112;81;21069;-78
2022/05/14 16:35:21;;;;;;;4.45;2.22;;;;;;;17.53;43.19;100477.28;3439584;81;20958;-77
2022/05/14 16:40:14;;;;;;;10.40;2.67;;;;;;;17.47;43.34;100471.24;3428023;81;21045;-77
2022/05/14 16:45:09;;;;;;;5.55;2.83;;;;;;;17.42;43.32;100474.38;3401843;81;21538;-77
2022/05/14 16:50:00;;;;;;;7.40;3.17;;;;;;;17.34;43.59;100477.13;3427094;81;21005;-77
2022/05/14 16:54:51;;;;;;;6.67;2.42;;;;;;;17.38;43.56;100476.64;3401030;81;21607;-77
2022/05/14 16:59:42;;;;;;;7.80;2.70;;;;;;;17.46;43.56;100476.95;3427780;81;20939;-78
2022/05/14 17:04:36;;;;;;;7.53;2.37;;;;;;;17.53;43.54;100474.66;3399324;81;21026;-77
2022/05/14 17:09:28;;;;;;;8.18;2.52;;;;;;;17.51;43.51;100469.02;3376708;81;21484;-77
2022/05/14 17:14:20;;;;;;;4.40;2.70;;;;;;;17.48;43.69;100465.97;3395354;81;21548;-77
2022/05/14 17:19:11;;;;;;;9.58;3.00;;;;;;;17.36;44.16;100480.61;3380901;82;21091;-77
2022/05/14 17:24:07;;;;;;;4.72;2.60;;;;;;;17.27;44.29;100476.34;3416779;82;21026;-77
2022/05/14 17:28:57;;;;;;;8.23;3.58;;;;;;;17.17;44.28;100480.02;3398402;82;20958;-77
2022/05/14 17:33:48;;;;;;;11.48;3.12;;;;;;;16.99;44.61;100477.20;3347580;82;20998;-77
2022/05/14 17:43:49;;;;;;;4.80;2.72;;;;;;;16.74;44.95;100480.52;3371277;82;21129;-77
2022/05/14 17:48:40;;;;;;;7.83;3.37;;;;;;;16.63;45.23;100483.27;3378739;82;21010;-77
2022/05/14 17:53:31;;;;;;;8.23;3.40;;;;;;;16.52;45.54;100482.53;3359421;82;22114;-77
2022/05/14 17:58:23;;;;;;;9.18;4.22;;;;;;;16.45;45.94;100484.80;3413869;82;21611;-78
2022/05/14 18:03:15;;;;;;;5.37;2.98;;;;;;;16.32;46.20;100486.23;3361374;82;20923;-78
2022/05/14 18:08:08;;;;;;;5.55;3.17;;;;;;;16.20;46.29;100485.94;3367610;82;21303;-78
2022/05/14 18:12:59;;;;;;;4.80;3.02;;;;;;;16.11;46.51;100491.70;3357882;82;21448;-78
2022/05/14 18:17:50;;;;;;;8.40;3.27;;;;;;;15.99;47.05;100496.19;3436009;81;21065;-77
2022/05/14 18:22:44;;;;;;;8.80;4.20;;;;;;;15.87;47.08;100493.66;3397152;81;21412;-77
2022/05/14 18:27:40;;;;;;;5.58;3.45;;;;;;;15.77;47.39;100507.72;3416151;81;20909;-77
2022/05/14 18:32:40;;;;;;;10.88;3.45;;;;;;;15.69;47.48;100508.20;3416021;82;21017;-77
2022/05/14 18:37:31;;;;;;;4.35;2.80;;;;;;;15.60;47.87;100513.92;3412515;81;21002;-77
2022/05/14 18:42:24;;;;;;;7.65;3.00;;;;;;;15.51;48.15;100517.06;3407916;81;20931;-78
2022/05/14 18:47:15;;;;;;;6.95;3.80;;;;;;;15.41;48.22;100518.41;3416827;81;20907;-77
2022/05/14 18:52:08;;;;;;;10.50;4.95;;;;;;;15.34;48.37;100528.94;3391054;81;21183;-77
2022/05/14 18:56:59;;;;;;;6.35;4.22;;;;;;;15.18;48.44;100522.46;3444008;81;21312;-77
2022/05/14 19:01:52;;;;;;;7.47;3.27;;;;;;;15.01;48.80;100525.63;3431989;81;21002;-77
2022/05/14 19:11:53;;;;;;;8.65;3.30;;;;;;;14.62;49.92;100527.50;3438549;81;20977;-77
2022/05/14 19:16:45;;;;;;;6.70;3.85;;;;;;;14.40;50.33;100527.52;3436123;81;21060;-77
2022/05/14 19:21:37;;;;;;;6.37;4.03;;;;;;;14.17;50.80;100529.29;3367749;82;21086;-77
2022/05/14 19:26:29;;;;;;;6.60;4.60;;;;;;;13.99;51.15;100537.56;3363146;83;21385;-77
2022/05/14 19:31:20;;;;;;;22.48;5.33;;;;;;;13.80;51.64;100542.34;3357355;83;21758;-77
2022/05/14 19:36:13;;;;;;;8.53;4.20;;;;;;;13.61;52.02;100547.97;3341915;83;20959;-76
2022/05/14 19:41:09;;;;;;;7.62;4.37;;;;;;;13.42;52.51;100541.85;3355094;83;21007;-77
2022/05/14 19:46:03;;;;;;;7.30;3.98;;;;;;;13.27;52.76;100547.44;3356548;83;21878;-77
2022/05/14 19:50:54;;;;;;;6.62;3.83;;;;;;;13.09;53.16;100544.73;3355393;83;21002;-77
2022/05/14 19:55:45;;;;;;;8.68;4.28;;;;;;;12.91;53.65;100546.42;3378796;83;21524;-77
2022/05/14 20:00:37;;;;;;;8.73;4.62;;;;;;;12.80;53.94;100553.31;3385621;83;21003;-77
2022/05/14 20:05:28;;;;;;;8.93;4.50;;;;;;;12.67;54.49;100548.91;3373738;83;20961;-77
2022/05/14 20:10:20;;;;;;;9.60;4.53;;;;;;;12.54;54.88;100547.52;3306855;83;20920;-77
2022/05/14 20:15:11;;;;;;;9.13;4.72;;;;;;;12.40;54.97;100553.08;3331279;83;21321;-76
2022/05/14 20:25:17;;;;;;;7.95;4.40;;;;;;;12.13;55.80;100559.83;3474086;80;20925;-76
2022/05/14 20:30:11;;;;;;;8.63;4.50;;;;;;;11.98;56.21;100563.19;3461187;81;21006;-76
2022/05/14 20:35:05;;;;;;;10.95;4.72;;;;;;;11.82;56.26;100572.56;3398020;81;21592;-76
2022/05/14 20:39:55;;;;;;;8.88;4.28;;;;;;;11.65;56.73;100566.30;3443427;80;20929;-76
2022/05/14 20:44:50;;;;;;;8.83;4.67;;;;;;;11.54;57.19;100575.75;3470980;81;21048;-76
2022/05/14 20:49:43;;;;;;;9.65;5.30;;;;;;;11.45;58.07;100578.68;3444712;80;21875;-76
2022/05/14 20:54:34;;;;;;;9.78;5.90;;;;;;;11.39;58.38;100569.52;3422846;80;20969;-76
2022/05/14 20:59:26;;;;;;;10.10;5.47;;;;;;;11.32;58.73;100579.41;3454431;81;21393;-76
2022/05/14 21:04:18;;;;;;;12.37;6.17;;;;;;;11.23;59.10;100573.67;3418013;81;20978;-76
2022/05/14 21:09:10;;;;;;;12.55;5.22;;;;;;;11.17;59.38;100578.78;3472361;80;20918;-76
2022/05/14 21:14:01;;;;;;;14.63;6.65;;;;;;;11.11;59.67;100577.85;3474498;80;20977;-76
2022/05/14 21:18:52;;;;;;;14.07;6.45;;;;;;;11.07;59.97;100574.34;3445476;80;21407;-76
2022/05/14 21:23:43;;;;;;;11.23;7.13;;;;;;;11.01;59.95;100577.70;3473049;80;21630;-76
2022/05/14 21:28:35;;;;;;;12.57;6.77;;;;;;;10.92;60.19;100576.30;3402091;81;21706;-76
2022/05/14 21:33:26;;;;;;;12.07;6.62;;;;;;;10.85;60.79;100579.23;3468312;80;21648;-76
2022/05/14 21:38:17;;;;;;;10.63;6.07;;;;;;;10.77;60.66;100583.47;3399933;80;21673;-76
2022/05/14 21:43:16;;;;;;;15.23;8.25;;;;;;;10.70;60.86;100584.23;3400233;81;21653;-76
2022/05/14 21:48:08;;;;;;;13.60;8.55;;;;;;;10.65;60.94;100580.69;3401529;81;21219;-75
2022/05/14 21:53:03;;;;;;;17.20;8.45;;;;;;;10.60;61.33;100586.25;3421918;81;22361;-76
2022/05/14 21:57:55;;;;;;;13.20;7.45;;;;;;;10.58;61.67;100586.22;3477669;80;21005;-76
2022/05/14 22:02:47;;;;;;;10.63;7.15;;;;;;;10.55;61.61;100594.00;3427766;81;20931;-75
2022/05/14 22:07:40;;;;;;;16.75;7.10;;;;;;;10.54;61.83;100602.63;3449761;81;21704;-76
2022/05/14 22:12:31;;;;;;;13.95;7.12;;;;;;;10.48;62.00;100599.92;3425921;81;21543;-76
2022/05/14 22:17:23;;;;;;;12.33;6.72;;;;;;;10.44;62.15;100602.03;3422258;81;20967;-75
2022/05/14 22:22:14;;;;;;;15.55;7.58;;;;;;;10.39;62.38;100598.48;3445439;81;20976;-76
2022/05/14 22:27:05;;;;;;;12.63;7.47;;;;;;;10.32;62.42;100599.23;3451041;81;20927;-77
2022/05/14 22:31:56;;;;;;;12.53;7.05;;;;;;;10.23;62.49;100594.33;3379295;81;20978;-77
2022/05/14 22:36:47;;;;;;;13.38;7.83;;;;;;;10.17;62.76;100598.53;3430114;81;20994;-77
2022/05/14 22:41:38;;;;;;;11.00;6.53;;;;;;;10.11;63.08;100598.88;3371797;81;21669;-77
2022/05/14 22:46:29;;;;;;;9.20;6.95;;;;;;;10.08;63.04;100607.05;3394333;81;20854;-77
2022/05/14 22:51:22;;;;;;;10.23;6.60;;;;;;;10.08;63.31;100605.75;3451270;81;21022;-76
2022/05/14 22:56:13;;;;;;;12.58;6.87;;;;;;;10.07;63.56;100611.81;3462004;81;21459;-76
2022/05/14 23:01:09;;;;;;;10.58;6.60;;;;;;;10.07;63.91;100611.81;3403640;81;21848;-77
2022/05/14 23:06:01;;;;;;;17.12;7.97;;;;;;;10.07;64.22;100604.88;3427842;81;20978;-78
2022/05/14 23:10:52;;;;;;;12.98;6.97;;;;;;;10.06;64.29;100608.75;3403280;82;20955;-77
2022/05/14 23:15:43;;;;;;;13.58;6.60;;;;;;;10.05;64.27;100609.58;3395764;82;20974;-77
2022/05/14 23:20:39;;;;;;;11.70;7.22;;;;;;;9.99;64.53;100611.66;3371749;82;20978;-77